createdAt,value
2024-02-19T00:01:16.396Z,96714.00
2024-02-19T00:04:04.783Z,96719.00
2024-02-19T00:06:50.570Z,96712.00
2024-02-19T00:09:36.747Z,96715.00
2024-02-19T00:12:22.747Z,96706.00
2024-02-19T00:15:08.905Z,96708.00
2024-02-19T00:17:54.324Z,96700.00
2024-02-19T00:20:40.432Z,96707.00
2024-02-19T00:23:27.919Z,96705.00
2024-02-19T00:26:14.504Z,96710.00
2024-02-19T00:29:00.337Z,96714.00
2024-02-19T00:31:46.402Z,96710.00
2024-02-19T00:34:31.889Z,96705.00
2024-02-19T00:37:17.333Z,96705.00
2024-02-19T00:40:05.710Z,96713.00
2024-02-19T00:42:52.247Z,96709.00
2024-02-19T00:45:38.022Z,96711.00
2024-02-19T00:48:23.539Z,96715.00
2024-02-19T00:51:09.779Z,96718.00
2024-02-19T00:53:55.231Z,96720.00
2024-02-19T00:56:40.771Z,96724.00
2024-02-19T00:59:26.613Z,96729.00
2024-02-19T01:02:12.322Z,96719.00
2024-02-19T01:05:00.041Z,96719.00
2024-02-19T01:07:45.720Z,96717.00
2024-02-19T01:10:31.346Z,96718.00
2024-02-19T01:13:17.648Z,96722.00
2024-02-19T01:16:03.859Z,96718.00
2024-02-19T01:18:49.777Z,96716.00
2024-02-19T01:21:35.713Z,96721.00
2024-02-19T01:24:21.185Z,96719.00
2024-02-19T01:27:07.662Z,96716.00
2024-02-19T01:29:53.487Z,96717.00
2024-02-19T01:32:40.925Z,96719.00
2024-02-19T01:35:27.296Z,96718.00
2024-02-19T01:38:13.529Z,96726.00
2024-02-19T01:40:59.755Z,96725.00
2024-02-19T01:43:45.378Z,96715.00
2024-02-19T01:46:32.464Z,96725.00
2024-02-19T01:49:19.159Z,96723.00
2024-02-19T01:52:06.642Z,96722.00
2024-02-19T01:54:53.355Z,96729.00
2024-02-19T01:57:40.720Z,96725.00
2024-02-19T02:00:29.423Z,96716.00
2024-02-19T02:03:23.847Z,96716.00
2024-02-19T02:06:09.755Z,96715.00
2024-02-19T02:08:56.652Z,96711.00
2024-02-19T02:11:42.570Z,96714.00
2024-02-19T02:14:28.464Z,96701.00
2024-02-19T02:17:14.183Z,96705.00
2024-02-19T02:20:00.054Z,96702.00
2024-02-19T02:22:45.922Z,96704.00
2024-02-19T02:25:34.000Z,96706.00
2024-02-19T02:28:21.169Z,96703.00
2024-02-19T02:31:08.367Z,96708.00
2024-02-19T02:33:54.088Z,96708.00
2024-02-19T02:36:41.578Z,96706.00
2024-02-19T02:39:27.515Z,96699.00
2024-02-19T02:42:13.324Z,96697.00
2024-02-19T02:44:58.727Z,96706.00
2024-02-19T02:47:44.920Z,96697.00
2024-02-19T02:50:30.807Z,96695.00
2024-02-19T02:53:16.820Z,96694.00
2024-02-19T02:56:02.371Z,96707.00
2024-02-19T02:58:49.208Z,96708.00
2024-02-19T03:01:35.010Z,96712.00
2024-02-19T03:04:20.995Z,96709.00
2024-02-19T03:07:06.984Z,96712.00
2024-02-19T03:09:54.189Z,96706.00
2024-02-19T03:12:41.413Z,96708.00
2024-02-19T03:15:27.334Z,96714.00
2024-02-19T03:18:13.561Z,96708.00
2024-02-19T03:21:00.144Z,96704.00
2024-02-19T03:23:52.821Z,96708.00
2024-02-19T03:26:41.588Z,96707.00
2024-02-19T03:29:29.149Z,96704.00
2024-02-19T03:32:14.611Z,96709.00
2024-02-19T03:35:00.580Z,96714.00
2024-02-19T03:37:47.540Z,96714.00
2024-02-19T03:40:33.452Z,96710.00
2024-02-19T03:43:19.136Z,96710.00
2024-02-19T03:46:06.418Z,96707.00
2024-02-19T03:48:51.826Z,96716.00
2024-02-19T03:51:37.875Z,96711.00
2024-02-19T03:54:24.357Z,96721.00
2024-02-19T03:57:10.420Z,96719.00
2024-02-19T03:59:56.004Z,96717.00
2024-02-19T04:02:41.636Z,96718.00
2024-02-19T04:05:27.020Z,96720.00
2024-02-19T04:08:12.536Z,96723.00
2024-02-19T04:10:57.989Z,96724.00
2024-02-19T04:13:43.562Z,96726.00
2024-02-19T04:16:29.769Z,96730.00
2024-02-19T04:19:18.069Z,96724.00
2024-02-19T04:22:03.826Z,96734.00
2024-02-19T04:24:49.182Z,96732.00
2024-02-19T04:27:35.239Z,96736.00
2024-02-19T04:30:20.908Z,96741.00
2024-02-19T04:33:06.899Z,96741.00
2024-02-19T04:35:52.928Z,96733.00
2024-02-19T04:38:38.483Z,96724.00
2024-02-19T04:41:24.261Z,96736.00
2024-02-19T04:44:09.730Z,96720.00
2024-02-19T04:46:55.159Z,96732.00
2024-02-19T04:49:41.198Z,96734.00
2024-02-19T04:52:26.962Z,96732.00
2024-02-19T04:55:13.029Z,96735.00
2024-02-19T04:57:59.137Z,96729.00
2024-02-19T05:00:45.656Z,96729.00
2024-02-19T05:03:32.032Z,96734.00
2024-02-19T05:06:17.853Z,96739.00
2024-02-19T05:09:03.889Z,96739.00
2024-02-19T05:11:49.796Z,96751.00
2024-02-19T05:14:35.490Z,96752.00
2024-02-19T05:17:21.172Z,96750.00
2024-02-19T05:20:08.394Z,96754.00
2024-02-19T05:22:54.791Z,96736.00
2024-02-19T05:25:41.429Z,96734.00
2024-02-19T05:28:27.158Z,96735.00
2024-02-19T05:31:12.669Z,96730.00
2024-02-19T05:33:59.304Z,96724.00
2024-02-19T05:36:45.275Z,96723.00
2024-02-19T05:39:30.974Z,96718.00
2024-02-19T05:42:16.743Z,96718.00
2024-02-19T05:45:02.413Z,96725.00
2024-02-19T05:47:49.132Z,96726.00
2024-02-19T05:50:37.960Z,96723.00
2024-02-19T05:53:23.700Z,96731.00
2024-02-19T05:56:10.358Z,96735.00
2024-02-19T05:58:56.851Z,96732.00
2024-02-19T06:01:42.704Z,96735.00
2024-02-19T06:04:29.302Z,96742.00
2024-02-19T06:07:15.887Z,96741.00
2024-02-19T06:10:03.021Z,96751.00
2024-02-19T06:12:48.556Z,96758.00
2024-02-19T06:15:34.504Z,96756.00
2024-02-19T06:18:20.602Z,96755.00
2024-02-19T06:21:06.788Z,96766.00
2024-02-19T06:23:52.273Z,96760.00
2024-02-19T06:26:37.677Z,96770.00
2024-02-19T06:29:23.203Z,96776.00
2024-02-19T06:32:08.865Z,96771.00
2024-02-19T06:34:55.070Z,96780.00
2024-02-19T06:37:42.241Z,96780.00
2024-02-19T06:40:28.153Z,96783.00
2024-02-19T06:43:14.239Z,96782.00
2024-02-19T06:46:00.215Z,96783.00
2024-02-19T06:48:48.328Z,96784.00
2024-02-19T06:51:35.694Z,96792.00
2024-02-19T06:54:21.241Z,96785.00
2024-02-19T06:57:06.547Z,96786.00
2024-02-19T06:59:52.069Z,96789.00
2024-02-19T07:02:38.566Z,96792.00
2024-02-19T07:05:24.154Z,96789.00
2024-02-19T07:08:10.165Z,96785.00
2024-02-19T07:10:56.096Z,96794.00
2024-02-19T07:13:42.142Z,96796.00
2024-02-19T07:16:27.718Z,96800.00
2024-02-19T07:19:13.521Z,96807.00
2024-02-19T07:21:59.245Z,96817.00
2024-02-19T07:24:45.297Z,96818.00
2024-02-19T07:27:31.544Z,96820.00
2024-02-19T07:30:17.466Z,96834.00
2024-02-19T07:33:03.047Z,96825.00
2024-02-19T07:35:50.352Z,96837.00
2024-02-19T07:38:36.159Z,96839.00
2024-02-19T07:41:21.596Z,96846.00
2024-02-19T07:44:07.279Z,96842.00
2024-02-19T07:46:52.958Z,96844.00
2024-02-19T07:49:38.828Z,96851.00
2024-02-19T07:52:24.836Z,96851.00
2024-02-19T07:55:11.022Z,96853.00
2024-02-19T07:58:02.013Z,96851.00
2024-02-19T08:00:48.202Z,96860.00
2024-02-19T08:03:36.171Z,96858.00
2024-02-19T08:06:24.209Z,96857.00
2024-02-19T08:09:10.016Z,96862.00
2024-02-19T08:11:58.671Z,96861.00
2024-02-19T08:14:44.864Z,96861.00
2024-02-19T08:17:30.720Z,96862.00
2024-02-19T08:20:16.680Z,96870.00
2024-02-19T08:23:02.512Z,96863.00
2024-02-19T08:25:48.888Z,96879.00
2024-02-19T08:28:35.297Z,96878.00
2024-02-19T08:31:26.270Z,96883.00
2024-02-19T08:34:41.690Z,96879.00
2024-02-19T08:37:37.067Z,96883.00
2024-02-19T08:40:26.074Z,96879.00
2024-02-19T08:43:16.878Z,96877.00
2024-02-19T08:46:02.999Z,96883.00
2024-02-19T08:48:49.788Z,96898.00
2024-02-19T08:51:35.675Z,96894.00
2024-02-19T08:55:20.605Z,96891.00
2024-02-19T08:58:10.060Z,96896.00
2024-02-19T09:00:58.536Z,96899.00
2024-02-19T09:03:44.647Z,96909.00
2024-02-19T09:06:30.398Z,96911.00
2024-02-19T09:09:16.051Z,96910.00
2024-02-19T09:12:02.313Z,96918.00
2024-02-19T09:14:48.145Z,96923.00
2024-02-19T09:17:34.508Z,96933.00
2024-02-19T09:20:20.131Z,96924.00
2024-02-19T09:23:06.444Z,96932.00
2024-02-19T09:25:53.514Z,96934.00
2024-02-19T09:28:39.833Z,96940.00
2024-02-19T09:31:27.400Z,96939.00
2024-02-19T09:34:17.984Z,96937.00
2024-02-19T09:37:11.344Z,96944.00
2024-02-19T09:40:00.399Z,96946.00
2024-02-19T09:42:49.095Z,96943.00
2024-02-19T09:45:37.276Z,96947.00
2024-02-19T09:48:24.145Z,96953.00
2024-02-19T09:51:16.520Z,96964.00
2024-02-19T09:54:08.385Z,96961.00
2024-02-19T09:56:55.955Z,96964.00
2024-02-19T09:59:46.567Z,96966.00
2024-02-19T10:02:32.242Z,96960.00
2024-02-19T10:05:18.029Z,96961.00
2024-02-19T10:08:13.949Z,96961.00
2024-02-19T10:11:05.070Z,96965.00
2024-02-19T10:13:53.566Z,96961.00
2024-02-19T10:16:39.449Z,96967.00
2024-02-19T10:19:27.363Z,96971.00
2024-02-19T10:22:15.505Z,96978.00
2024-02-19T10:25:08.466Z,96971.00
2024-02-19T10:27:55.268Z,96966.00
2024-02-19T10:30:41.483Z,96974.00
2024-02-19T10:33:27.518Z,96980.00
2024-02-19T10:36:16.693Z,96980.00
2024-02-19T10:39:04.711Z,96970.00
2024-02-19T10:41:50.361Z,96970.00
2024-02-19T10:44:36.813Z,96970.00
2024-02-19T10:47:24.013Z,96978.00
2024-02-19T10:50:10.387Z,96980.00
2024-02-19T10:52:57.185Z,96983.00
2024-02-19T10:55:53.288Z,96982.00
2024-02-19T10:58:56.745Z,96985.00
2024-02-19T11:01:48.690Z,96986.00
2024-02-19T11:04:35.607Z,96986.00
2024-02-19T11:07:22.688Z,96991.00
2024-02-19T11:10:09.586Z,96979.00
2024-02-19T11:13:10.013Z,96983.00
2024-02-19T11:15:56.403Z,96982.00
2024-02-19T11:18:42.298Z,96982.00
2024-02-19T11:21:28.112Z,96978.00
2024-02-19T11:24:14.803Z,96982.00
2024-02-19T11:27:01.001Z,96969.00
2024-02-19T11:29:48.357Z,96969.00
2024-02-19T11:32:36.395Z,96977.00
2024-02-19T11:35:22.536Z,96963.00
2024-02-19T11:38:08.097Z,96963.00
2024-02-19T11:40:54.354Z,96958.00
2024-02-19T11:43:40.125Z,96952.00
2024-02-19T11:46:25.912Z,96946.00
2024-02-19T11:49:13.283Z,96949.00
2024-02-19T11:52:07.653Z,96941.00
2024-02-19T11:54:56.706Z,96943.00
2024-02-19T11:57:44.481Z,96936.00
2024-02-19T12:00:31.592Z,96936.00
2024-02-19T12:03:17.930Z,96933.00
2024-02-19T12:06:04.417Z,96933.00
2024-02-19T12:08:49.890Z,96932.00
2024-02-19T12:11:36.405Z,96932.00
2024-02-19T12:14:22.118Z,96923.00
2024-02-19T12:17:08.684Z,96923.00
2024-02-19T12:19:57.170Z,96926.00
2024-02-19T12:22:43.508Z,96909.00
2024-02-19T12:25:29.444Z,96918.00
2024-02-19T12:28:15.753Z,96912.00
2024-02-19T12:31:01.643Z,96910.00
2024-02-19T12:33:47.789Z,96901.00
2024-02-19T12:36:33.670Z,96900.00
2024-02-19T12:39:19.519Z,96902.00
2024-02-19T12:42:09.520Z,96909.00
2024-02-19T12:44:56.575Z,96896.00
2024-02-19T12:47:42.613Z,96900.00
2024-02-19T12:50:29.407Z,96886.00
2024-02-19T12:53:15.400Z,96880.00
2024-02-19T12:56:01.490Z,96881.00
2024-02-19T12:58:46.854Z,96871.00
2024-02-19T13:01:33.830Z,96880.00
2024-02-19T13:04:21.826Z,96881.00
2024-02-19T13:07:08.689Z,96879.00
2024-02-19T13:09:54.648Z,96890.00
2024-02-19T13:12:40.418Z,96874.00
2024-02-19T13:15:26.576Z,96878.00
2024-02-19T13:18:12.659Z,96885.00
2024-02-19T13:20:58.471Z,96883.00
2024-02-19T13:23:45.542Z,96894.00
2024-02-19T13:26:31.345Z,96889.00
2024-02-19T13:29:16.925Z,96888.00
2024-02-19T13:32:02.912Z,96888.00
2024-02-19T13:34:48.937Z,96889.00
2024-02-19T13:37:34.470Z,96891.00
2024-02-19T13:40:20.473Z,96882.00
2024-02-19T13:43:07.807Z,96886.00
2024-02-19T13:46:03.108Z,96890.00
2024-02-19T13:49:04.648Z,96888.00
2024-02-19T13:51:50.536Z,96881.00
2024-02-19T13:54:36.306Z,96884.00
2024-02-19T13:57:21.881Z,96890.00
2024-02-19T14:00:08.308Z,96882.00
2024-02-19T14:02:55.094Z,96891.00
2024-02-19T14:05:41.153Z,96880.00
2024-02-19T14:08:28.311Z,96874.00
2024-02-19T14:11:14.161Z,96876.00
2024-02-19T14:14:02.649Z,96871.00
2024-02-19T14:16:49.406Z,96871.00
2024-02-19T14:19:37.744Z,96855.00
2024-02-19T14:22:26.406Z,96859.00
2024-02-19T14:25:13.162Z,96866.00
2024-02-19T14:28:05.345Z,96856.00
2024-02-19T14:30:51.481Z,96856.00
2024-02-19T14:33:37.414Z,96846.00
2024-02-19T14:36:25.522Z,96848.00
2024-02-19T14:39:12.177Z,96849.00
2024-02-19T14:41:57.684Z,96853.00
2024-02-19T14:44:43.196Z,96850.00
2024-02-19T14:47:28.874Z,96849.00
2024-02-19T14:50:18.460Z,96848.00
2024-02-19T14:53:05.357Z,96848.00
2024-02-19T14:55:51.134Z,96848.00
2024-02-19T14:58:37.214Z,96837.00
2024-02-19T15:01:23.409Z,96842.00
2024-02-19T15:04:12.159Z,96844.00
2024-02-19T15:07:01.583Z,96846.00
2024-02-19T15:09:47.144Z,96840.00
2024-02-19T15:12:33.946Z,96850.00
2024-02-19T15:15:21.291Z,96839.00
2024-02-19T15:18:08.268Z,96839.00
2024-02-19T15:20:54.219Z,96836.00
2024-02-19T15:23:42.249Z,96836.00
2024-02-19T15:26:28.167Z,96841.00
2024-02-19T15:29:14.302Z,96831.00
2024-02-19T15:32:01.701Z,96830.00
2024-02-19T15:34:48.852Z,96824.00
2024-02-19T15:37:37.713Z,96823.00
2024-02-19T15:40:24.722Z,96820.00
2024-02-19T15:43:10.474Z,96822.00
2024-02-19T15:45:57.094Z,96812.00
2024-02-19T15:48:43.333Z,96824.00
2024-02-19T15:51:30.843Z,96811.00
2024-02-19T15:54:17.503Z,96811.00
2024-02-19T15:57:03.332Z,96808.00
2024-02-19T15:59:49.016Z,96811.00
2024-02-19T16:02:37.706Z,96810.00
2024-02-19T16:05:23.794Z,96811.00
2024-02-19T16:08:42.094Z,96811.00
2024-02-19T16:11:27.921Z,96808.00
2024-02-19T16:14:13.948Z,96805.00
2024-02-19T16:16:59.359Z,96797.00
2024-02-19T16:19:45.344Z,96793.00
2024-02-19T16:22:31.453Z,96795.00
2024-02-19T16:25:17.475Z,96787.00
2024-02-19T16:28:03.345Z,96782.00
2024-02-19T16:30:54.932Z,96790.00
2024-02-19T16:33:42.749Z,96785.00
2024-02-19T16:36:29.061Z,96779.00
2024-02-19T16:39:15.694Z,96793.00
2024-02-19T16:42:01.328Z,96799.00
2024-02-19T16:44:47.394Z,96795.00
2024-02-19T16:47:33.603Z,96796.00
2024-02-19T16:50:19.634Z,96803.00
2024-02-19T16:53:06.274Z,96796.00
2024-02-19T16:56:19.745Z,96801.00
2024-02-19T16:59:06.099Z,96796.00
2024-02-19T17:01:55.755Z,96803.00
2024-02-19T17:04:52.954Z,96805.00
2024-02-19T17:07:39.513Z,96801.00
2024-02-19T17:10:26.113Z,96794.00
2024-02-19T17:13:14.629Z,96805.00
2024-02-19T17:16:00.884Z,96800.00
2024-02-19T17:18:47.061Z,96805.00
2024-02-19T17:21:33.559Z,96806.00
2024-02-19T17:24:19.234Z,96799.00
2024-02-19T17:27:05.574Z,96805.00
2024-02-19T17:29:51.402Z,96804.00
2024-02-19T17:32:37.661Z,96799.00
2024-02-19T17:35:25.096Z,96799.00
2024-02-19T17:38:12.350Z,96799.00
2024-02-19T17:41:04.234Z,96799.00
2024-02-19T17:43:50.573Z,96794.00
2024-02-19T17:46:37.150Z,96801.00
2024-02-19T17:49:23.593Z,96793.00
2024-02-19T17:52:09.795Z,96798.00
2024-02-19T17:55:01.589Z,96791.00
2024-02-19T17:57:50.565Z,96802.00
2024-02-19T18:00:37.429Z,96799.00
2024-02-19T18:03:23.256Z,96795.00
2024-02-19T18:06:12.381Z,96790.00
2024-02-19T18:08:59.044Z,96797.00
2024-02-19T18:11:44.999Z,96798.00
2024-02-19T18:14:33.580Z,96799.00
2024-02-19T18:17:20.022Z,96789.00
2024-02-19T18:20:08.378Z,96792.00
2024-02-19T18:22:58.627Z,96797.00
2024-02-19T18:25:44.295Z,96795.00
2024-02-19T18:28:30.325Z,96798.00
2024-02-19T18:31:16.776Z,96792.00
2024-02-19T18:34:06.766Z,96798.00
2024-02-19T18:36:55.671Z,96795.00
2024-02-19T18:39:41.378Z,96799.00
2024-02-19T18:42:27.739Z,96786.00
2024-02-19T18:45:13.721Z,96791.00
2024-02-19T18:47:59.255Z,96794.00
2024-02-19T18:50:45.409Z,96787.00
2024-02-19T18:53:31.425Z,96797.00
2024-02-19T18:56:17.395Z,96787.00
2024-02-19T18:59:03.441Z,96781.00
2024-02-19T19:01:49.478Z,96775.00
2024-02-19T19:04:38.585Z,96777.00
2024-02-19T19:07:24.569Z,96779.00
2024-02-19T19:10:10.616Z,96776.00
2024-02-19T19:12:56.455Z,96772.00
2024-02-19T19:15:44.284Z,96766.00
2024-02-19T19:18:32.275Z,96773.00
2024-02-19T19:21:18.153Z,96766.00
2024-02-19T19:24:07.630Z,96763.00
2024-02-19T19:26:53.568Z,96758.00
2024-02-19T19:29:39.490Z,96754.00
2024-02-19T19:32:30.070Z,96753.00
2024-02-19T19:35:16.368Z,96764.00
2024-02-19T19:38:01.901Z,96759.00
2024-02-19T19:40:47.553Z,96753.00
2024-02-19T19:43:33.764Z,96751.00
2024-02-19T19:46:19.411Z,96752.00
2024-02-19T19:49:08.088Z,96748.00
2024-02-19T19:51:54.066Z,96760.00
2024-02-19T19:54:39.802Z,96751.00
2024-02-19T19:57:28.034Z,96750.00
2024-02-19T20:00:16.408Z,96748.00
2024-02-19T20:03:04.069Z,96745.00
2024-02-19T20:05:49.635Z,96746.00
2024-02-19T20:08:36.253Z,96748.00
2024-02-19T20:11:22.751Z,96745.00
2024-02-19T20:14:11.081Z,96744.00
2024-02-19T20:16:58.157Z,96740.00
2024-02-19T20:19:44.091Z,96743.00
2024-02-19T20:22:31.659Z,96744.00
2024-02-19T20:25:20.743Z,96732.00
2024-02-19T20:28:07.042Z,96734.00
2024-02-19T20:30:54.409Z,96739.00
2024-02-19T20:33:40.573Z,96743.00
2024-02-19T20:36:26.807Z,96736.00
2024-02-19T20:39:15.397Z,96736.00
2024-02-19T20:42:01.159Z,96731.00
2024-02-19T20:44:49.845Z,96732.00
2024-02-19T20:47:40.620Z,96725.00
2024-02-19T20:50:26.998Z,96727.00
2024-02-19T20:53:14.390Z,96720.00
2024-02-19T20:56:06.122Z,96716.00
2024-02-19T20:58:55.300Z,96724.00
2024-02-19T21:01:43.712Z,96721.00
2024-02-19T21:04:35.488Z,96727.00
2024-02-19T21:07:23.330Z,96724.00
2024-02-19T21:10:09.647Z,96723.00
2024-02-19T21:12:56.605Z,96729.00
2024-02-19T21:15:42.281Z,96728.00
2024-02-19T21:18:34.468Z,96732.00
2024-02-19T21:21:34.598Z,96729.00
2024-02-19T21:24:21.221Z,96721.00
2024-02-19T21:27:06.755Z,96715.00
2024-02-19T21:29:57.084Z,96718.00
2024-02-19T21:32:45.241Z,96716.00
2024-02-19T21:35:31.395Z,96716.00
2024-02-19T21:38:17.109Z,96718.00
2024-02-19T21:41:03.693Z,96719.00
2024-02-19T21:43:49.203Z,96718.00
2024-02-19T21:46:37.007Z,96723.00
2024-02-19T21:49:23.726Z,96720.00
2024-02-19T21:52:09.595Z,96717.00
2024-02-19T21:54:55.474Z,96726.00
2024-02-19T21:57:41.625Z,96719.00
2024-02-19T22:00:27.181Z,96721.00
2024-02-19T22:03:12.809Z,96714.00
2024-02-19T22:05:58.958Z,96718.00
2024-02-19T22:08:44.336Z,96711.00
2024-02-19T22:11:30.020Z,96708.00
2024-02-19T22:14:16.092Z,96711.00
2024-02-19T22:17:02.074Z,96712.00
2024-02-19T22:19:47.567Z,96705.00
2024-02-19T22:22:36.056Z,96706.00
2024-02-19T22:25:21.951Z,96703.00
2024-02-19T22:28:07.938Z,96711.00
2024-02-19T22:30:53.818Z,96708.00
2024-02-19T22:33:39.889Z,96711.00
2024-02-19T22:36:25.713Z,96715.00
2024-02-19T22:39:11.421Z,96729.00
2024-02-19T22:41:56.987Z,96718.00
2024-02-19T22:44:42.549Z,96713.00
2024-02-19T22:47:30.897Z,96714.00
2024-02-19T22:50:16.744Z,96710.00
2024-02-19T22:53:02.828Z,96717.00
2024-02-19T22:56:14.535Z,96705.00
2024-02-19T22:59:13.976Z,96703.00
2024-02-19T23:02:05.719Z,96699.00
2024-02-19T23:04:51.434Z,96699.00
2024-02-19T23:07:37.005Z,96693.00
2024-02-19T23:10:23.147Z,96691.00
2024-02-19T23:13:09.388Z,96689.00
2024-02-19T23:15:55.906Z,96683.00
2024-02-19T23:18:42.377Z,96676.00
2024-02-19T23:21:27.948Z,96675.00
2024-02-19T23:24:13.563Z,96667.00
2024-02-19T23:26:58.999Z,96681.00
2024-02-19T23:29:45.101Z,96684.00
2024-02-19T23:32:30.897Z,96686.00
2024-02-19T23:35:17.635Z,96684.00
2024-02-19T23:38:05.457Z,96682.00
2024-02-19T23:40:51.464Z,96678.00
2024-02-19T23:43:38.157Z,96675.00
2024-02-19T23:46:23.824Z,96673.00
2024-02-19T23:49:09.897Z,96673.00
2024-02-19T23:51:55.759Z,96677.00
2024-02-19T23:54:42.094Z,96669.00
2024-02-19T23:57:28.662Z,96667.00
